createdAt,value
2022-09-18T00:04:27.895Z,11.70
2022-09-18T00:09:30.673Z,11.70
2022-09-18T00:14:33.551Z,11.70
2022-09-18T00:19:36.377Z,11.60
2022-09-18T00:24:39.198Z,11.60
2022-09-18T00:29:42.001Z,11.50
2022-09-18T00:34:44.810Z,11.50
2022-09-18T00:39:47.811Z,11.50
2022-09-18T00:44:50.654Z,11.50
2022-09-18T00:50:12.787Z,11.50
2022-09-18T00:55:18.662Z,11.50
2022-09-18T01:00:22.718Z,11.50
2022-09-18T01:05:58.077Z,11.50
2022-09-18T01:11:41.881Z,11.50
2022-09-18T01:16:59.050Z,11.50
2022-09-18T01:22:31.688Z,11.50
2022-09-18T01:28:11.743Z,11.40
2022-09-18T01:33:35.571Z,11.40
2022-09-18T01:38:57.381Z,11.40
2022-09-18T01:44:16.662Z,11.30
2022-09-18T01:49:29.623Z,11.30
2022-09-18T01:54:38.951Z,11.30
2022-09-18T02:00:09.465Z,11.30
2022-09-18T02:05:31.681Z,11.20
2022-09-18T02:10:40.730Z,11.20
2022-09-18T02:15:46.003Z,11.10
2022-09-18T02:20:49.766Z,11.10
2022-09-18T02:26:00.913Z,11.10
2022-09-18T02:31:03.922Z,11.00
2022-09-18T02:36:23.467Z,11.00
2022-09-18T02:42:21.754Z,10.90
2022-09-18T02:47:52.168Z,10.90
2022-09-18T02:53:18.289Z,10.70
2022-09-18T02:58:39.625Z,10.70
2022-09-18T03:03:42.569Z,10.60
2022-09-18T03:08:46.384Z,10.60
2022-09-18T03:13:49.218Z,10.60
2022-09-18T03:18:51.899Z,10.50
2022-09-18T03:23:55.184Z,10.50
2022-09-18T03:28:57.947Z,10.40
2022-09-18T03:34:00.773Z,10.40
2022-09-18T03:39:04.344Z,10.30
2022-09-18T03:44:07.146Z,10.30
2022-09-18T03:49:09.923Z,10.20
2022-09-18T03:54:12.775Z,10.20
2022-09-18T03:59:15.543Z,10.20
2022-09-18T04:04:18.821Z,10.20
2022-09-18T04:09:21.833Z,10.20
2022-09-18T04:14:29.290Z,10.20
2022-09-18T04:19:32.853Z,10.10
2022-09-18T04:24:36.424Z,10.10
2022-09-18T04:29:39.152Z,10.10
2022-09-18T04:34:42.956Z,10.10
2022-09-18T04:39:47.080Z,10.10
2022-09-18T04:44:49.910Z,10.10
2022-09-18T04:49:53.942Z,10.10
2022-09-18T04:54:57.056Z,10.20
2022-09-18T04:59:59.742Z,10.20
2022-09-18T05:05:02.436Z,10.30
2022-09-18T05:10:08.744Z,10.50
2022-09-18T05:15:12.317Z,10.60
2022-09-18T05:20:15.286Z,10.70
2022-09-18T05:25:19.528Z,10.80
2022-09-18T05:30:23.872Z,10.90
2022-09-18T05:35:29.353Z,11.00
2022-09-18T05:40:35.701Z,11.00
2022-09-18T05:45:38.528Z,11.00
2022-09-18T05:50:43.262Z,11.20
2022-09-18T05:55:46.102Z,11.30
2022-09-18T06:00:50.945Z,11.50
2022-09-18T06:05:55.372Z,11.70
2022-09-18T06:11:01.587Z,11.90
2022-09-18T06:16:04.628Z,12.20
2022-09-18T06:21:07.609Z,12.20
2022-09-18T06:26:14.761Z,12.20
2022-09-18T06:31:18.136Z,12.30
2022-09-18T06:36:21.011Z,12.30
2022-09-18T06:41:26.801Z,12.30
2022-09-18T06:46:29.675Z,12.30
2022-09-18T06:51:32.452Z,12.40
2022-09-18T06:56:35.318Z,12.50
2022-09-18T07:01:38.346Z,12.40
2022-09-18T07:06:45.886Z,12.40
2022-09-18T07:11:48.726Z,12.40
2022-09-18T07:16:51.441Z,12.50
2022-09-18T07:21:54.366Z,12.60
2022-09-18T07:26:58.931Z,12.70
2022-09-18T07:32:01.762Z,12.80
2022-09-18T07:37:05.003Z,12.90
2022-09-18T07:42:09.035Z,13.20
2022-09-18T07:47:12.866Z,13.40
2022-09-18T07:52:15.619Z,13.60
2022-09-18T07:57:18.929Z,13.50
2022-09-18T08:02:21.846Z,13.50
2022-09-18T08:07:27.435Z,13.40
2022-09-18T08:12:32.008Z,13.50
2022-09-18T08:17:34.806Z,13.50
2022-09-18T08:22:41.792Z,13.60
2022-09-18T08:27:44.807Z,13.50
2022-09-18T08:32:47.772Z,13.40
2022-09-18T08:37:50.668Z,13.40
2022-09-18T08:43:14.860Z,13.40
2022-09-18T08:48:28.098Z,13.30
2022-09-18T08:53:41.537Z,13.30
2022-09-18T08:58:51.562Z,13.30
2022-09-18T09:04:14.722Z,13.40
2022-09-18T09:09:33.009Z,13.60
2022-09-18T09:15:01.938Z,13.80
2022-09-18T09:20:48.587Z,14.00
2022-09-18T09:26:12.020Z,14.30
2022-09-18T09:31:19.582Z,14.50
2022-09-18T09:36:28.628Z,14.50
2022-09-18T09:41:59.283Z,14.40
2022-09-18T09:47:57.772Z,14.20
2022-09-18T09:53:07.265Z,14.00
2022-09-18T09:58:38.084Z,13.90
2022-09-18T10:04:07.096Z,13.90
2022-09-18T10:09:52.979Z,14.10
2022-09-18T10:15:14.053Z,14.10
2022-09-18T10:20:27.883Z,14.10
2022-09-18T10:25:46.500Z,14.10
2022-09-18T10:31:10.809Z,14.10
2022-09-18T10:36:37.333Z,14.10
2022-09-18T10:41:40.708Z,14.20
2022-09-18T10:47:09.952Z,14.50
2022-09-18T10:52:38.029Z,14.60
2022-09-18T10:57:46.926Z,14.80
2022-09-18T11:02:53.723Z,15.00
2022-09-18T11:08:00.610Z,15.40
2022-09-18T11:13:05.231Z,15.70
2022-09-18T11:18:15.965Z,15.80
2022-09-18T11:23:26.880Z,15.90
2022-09-18T11:28:32.418Z,16.00
2022-09-18T11:33:57.804Z,16.00
2022-09-18T11:39:03.214Z,16.10
2022-09-18T11:44:27.895Z,16.00
2022-09-18T11:50:15.192Z,15.80
2022-09-18T11:55:48.239Z,15.70
2022-09-18T12:01:17.265Z,15.60
2022-09-18T12:06:53.608Z,15.70
2022-09-18T12:12:02.705Z,15.90
2022-09-18T12:17:36.237Z,15.90
2022-09-18T12:22:55.724Z,16.00
2022-09-18T12:28:51.523Z,16.20
2022-09-18T12:34:02.164Z,16.60
2022-09-18T12:39:26.070Z,17.10
2022-09-18T12:45:02.643Z,17.00
2022-09-18T12:50:15.176Z,16.80
2022-09-18T12:55:59.771Z,16.70
2022-09-18T13:01:22.453Z,16.60
2022-09-18T13:06:41.294Z,16.60
2022-09-18T13:11:51.244Z,16.70
2022-09-18T13:17:01.326Z,16.80
2022-09-18T13:22:17.640Z,17.10
2022-09-18T13:27:24.486Z,17.10
2022-09-18T13:32:37.389Z,16.90
2022-09-18T13:37:42.626Z,16.90
2022-09-18T13:42:45.821Z,16.80
2022-09-18T13:48:19.444Z,16.80
2022-09-18T13:53:40.791Z,16.80
2022-09-18T13:58:57.500Z,16.90
2022-09-18T14:04:00.313Z,16.80
2022-09-18T14:09:44.918Z,16.70
2022-09-18T14:15:06.772Z,16.80
2022-09-18T14:20:28.252Z,16.80
2022-09-18T14:25:52.005Z,16.90
2022-09-18T14:31:37.802Z,16.90
2022-09-18T14:36:50.705Z,16.80
2022-09-18T14:42:34.124Z,16.80
2022-09-18T14:47:38.242Z,16.80
2022-09-18T14:52:44.096Z,16.80
2022-09-18T14:58:00.825Z,16.80
2022-09-18T15:03:29.119Z,16.70
2022-09-18T15:08:32.123Z,16.60
2022-09-18T15:13:38.043Z,16.60
2022-09-18T15:18:42.831Z,16.70
2022-09-18T15:23:45.716Z,16.80
2022-09-18T15:28:51.856Z,16.70
2022-09-18T15:34:05.464Z,16.80
2022-09-18T15:39:35.054Z,16.70
2022-09-18T15:44:37.863Z,16.40
2022-09-18T15:49:40.728Z,16.40
2022-09-18T15:55:05.512Z,16.30
2022-09-18T16:00:24.726Z,16.00
2022-09-18T16:05:31.031Z,15.60
2022-09-18T16:10:42.549Z,15.30
2022-09-18T16:15:47.789Z,15.00
2022-09-18T16:20:53.986Z,14.80
2022-09-18T16:26:21.580Z,14.60
2022-09-18T16:31:32.982Z,14.50
2022-09-18T16:36:42.043Z,14.40
2022-09-18T16:41:49.177Z,14.20
2022-09-18T16:46:52.963Z,14.10
2022-09-18T16:51:55.975Z,13.90
2022-09-18T16:57:23.860Z,13.80
2022-09-18T17:02:26.846Z,13.70
2022-09-18T17:07:31.296Z,13.60
2022-09-18T17:12:34.071Z,13.50
2022-09-18T17:17:41.916Z,13.40
2022-09-18T17:22:46.023Z,13.30
2022-09-18T17:27:52.732Z,13.20
2022-09-18T17:32:55.620Z,13.10
2022-09-18T17:37:58.497Z,13.10
2022-09-18T17:43:01.497Z,13.00
2022-09-18T17:48:05.873Z,13.00
2022-09-18T17:53:09.637Z,13.00
2022-09-18T17:58:24.980Z,12.90
2022-09-18T18:03:28.553Z,12.90
2022-09-18T18:08:31.490Z,12.90
2022-09-18T18:13:40.645Z,12.90
2022-09-18T18:18:49.770Z,13.00
2022-09-18T18:24:03.494Z,13.00
2022-09-18T18:29:10.853Z,13.10
2022-09-18T18:34:13.836Z,13.20
2022-09-18T18:39:17.146Z,13.20
2022-09-18T18:44:20.275Z,13.30
2022-09-18T18:49:23.404Z,13.30
2022-09-18T18:54:26.306Z,13.30
2022-09-18T18:59:29.179Z,13.30
2022-09-18T19:04:34.662Z,13.20
2022-09-18T19:09:37.366Z,13.10
2022-09-18T19:14:40.171Z,13.00
2022-09-18T19:19:43.020Z,13.00
2022-09-18T19:24:45.820Z,13.00
2022-09-18T19:29:49.479Z,12.90
2022-09-18T19:34:52.304Z,12.90
2022-09-18T19:39:55.100Z,12.90
2022-09-18T19:45:03.787Z,12.90
2022-09-18T19:50:16.736Z,12.80
2022-09-18T19:55:23.145Z,12.90
2022-09-18T20:00:26.850Z,12.80
2022-09-18T20:05:29.833Z,12.80
2022-09-18T20:10:35.805Z,12.90
2022-09-18T20:15:39.152Z,12.90
2022-09-18T20:20:42.954Z,12.90
2022-09-18T20:25:45.898Z,12.90
2022-09-18T20:30:49.586Z,12.90
2022-09-18T20:35:59.437Z,13.00
2022-09-18T20:41:15.259Z,13.00
2022-09-18T20:46:20.207Z,13.00
2022-09-18T20:51:32.488Z,13.00
2022-09-18T20:56:42.315Z,13.00
2022-09-18T21:01:48.621Z,13.10
2022-09-18T21:06:56.520Z,13.10
2022-09-18T21:11:59.706Z,13.10
2022-09-18T21:17:04.522Z,13.20
2022-09-18T21:22:07.694Z,13.20
2022-09-18T21:27:10.813Z,13.30
2022-09-18T21:32:13.582Z,13.30
2022-09-18T21:37:16.618Z,13.40
2022-09-18T21:42:19.628Z,13.40
2022-09-18T21:47:25.406Z,13.40
2022-09-18T21:52:28.925Z,13.40
2022-09-18T21:57:31.780Z,13.40
2022-09-18T22:02:34.786Z,13.40
2022-09-18T22:07:37.616Z,13.40
2022-09-18T22:12:41.272Z,13.30
2022-09-18T22:17:44.133Z,13.30
2022-09-18T22:22:47.519Z,13.30
2022-09-18T22:27:50.566Z,13.40
2022-09-18T22:32:53.283Z,13.40
2022-09-18T22:37:56.089Z,13.50
2022-09-18T22:42:59.074Z,13.50
2022-09-18T22:48:02.034Z,13.50
2022-09-18T22:53:05.004Z,13.50
2022-09-18T22:58:08.113Z,13.50
2022-09-18T23:03:11.674Z,13.50
2022-09-18T23:08:14.592Z,13.50
2022-09-18T23:13:17.650Z,13.50
2022-09-18T23:18:20.454Z,13.50
2022-09-18T23:23:23.958Z,13.50
2022-09-18T23:28:26.784Z,13.50
2022-09-18T23:33:29.623Z,13.50
2022-09-18T23:38:32.936Z,13.50
2022-09-18T23:43:36.021Z,13.50
2022-09-18T23:48:38.929Z,13.40
2022-09-18T23:53:41.949Z,13.40
2022-09-18T23:58:45.029Z,13.30
